Time,TemperatureF,DewpointF,PressureIn,WindDirection,WindDirectionDegrees,WindSpeedMPH,WindSpeedGustMPH,Humidity,HourlyPrecipIn,Conditions,Clouds,dailyrainin,SolarRadiationWatts/m^2,SoftwareType,DateUTC
2013-02-16 00:02:00,-9.0,-15.0,-100.00,South,191,1.0,2.0,74,0.00,,,0.00,0.000000,,2013-02-16 06:02:00,
2013-02-16 00:11:00,-9.0,-15.0,-100.00,South,191,1.0,2.0,74,0.00,,,0.00,0.000000,,2013-02-16 06:11:00,
2013-02-16 00:42:00,-12.0,-18.0,-100.00,ESE,113,0.0,2.0,73,0.00,,,0.00,0.000000,,2013-02-16 06:42:00,
2013-02-16 00:52:00,-12.0,-18.0,-100.00,ESE,113,0.0,2.0,73,0.00,,,0.00,0.000000,,2013-02-16 06:52:00,
2013-02-16 01:02:00,-12.0,-18.0,-100.00,ESE,113,0.0,2.0,73,0.00,,,0.00,0.000000,,2013-02-16 07:02:00,
2013-02-16 01:11:00,-12.0,-18.0,-100.00,ESE,113,0.0,2.0,73,0.00,,,0.00,0.000000,,2013-02-16 07:11:00,
2013-02-16 01:32:00,-14.0,-21.0,-100.00,SE,143,1.0,1.0,71,0.00,,,0.00,0.000000,,2013-02-16 07:32:00,
2013-02-16 01:42:00,-14.0,-21.0,-100.00,SE,143,1.0,1.0,71,0.00,,,0.00,0.000000,,2013-02-16 07:42:00,
2013-02-16 01:53:00,-14.0,-21.0,-100.00,SE,143,1.0,1.0,71,0.00,,,0.00,0.000000,,2013-02-16 07:53:00,
2013-02-16 02:01:00,-14.0,-21.0,-100.00,SE,143,1.0,1.0,71,0.00,,,0.00,0.000000,,2013-02-16 08:01:00,
2013-02-16 02:11:00,-14.0,-21.0,-100.00,SE,143,1.0,1.0,71,0.00,,,0.00,0.000000,,2013-02-16 08:11:00,
2013-02-16 02:32:00,-16.0,-23.0,-100.00,SSE,154,1.0,2.0,70,0.00,,,0.00,0.000000,,2013-02-16 08:32:00,
2013-02-16 02:42:00,-16.0,-23.0,-100.00,SSE,154,1.0,2.0,70,0.00,,,0.00,0.000000,,2013-02-16 08:42:00,
2013-02-16 02:52:00,-16.0,-23.0,-100.00,SSE,154,1.0,2.0,70,0.00,,,0.00,0.000000,,2013-02-16 08:52:00,
2013-02-16 03:01:00,-16.0,-23.0,-100.00,SSE,154,1.0,2.0,70,0.00,,,0.00,0.000000,,2013-02-16 09:01:00,
2013-02-16 03:11:00,-16.0,-23.0,-100.00,SSE,154,1.0,2.0,70,0.00,,,0.00,0.000000,,2013-02-16 09:11:00,
2013-02-16 03:42:00,-17.0,-24.0,-100.00,SSE,165,1.0,2.0,68,0.00,,,0.00,0.000000,,2013-02-16 09:42:00,
2013-02-16 03:52:00,-17.0,-24.0,-100.00,SSE,165,1.0,2.0,68,0.00,,,0.00,0.000000,,2013-02-16 09:52:00,
2013-02-16 04:01:00,-17.0,-24.0,-100.00,SSE,165,1.0,2.0,68,0.00,,,0.00,0.000000,,2013-02-16 10:01:00,
2013-02-16 04:11:00,-17.0,-24.0,-100.00,SSE,165,1.0,2.0,68,0.00,,,0.00,0.000000,,2013-02-16 10:11:00,
2013-02-16 04:42:00,-19.0,-27.0,-100.00,NE,46,1.0,2.0,66,-99.99,,,0.00,0.000000,,2013-02-16 10:42:00,
2013-02-16 04:52:00,-19.0,-27.0,-100.00,NE,46,1.0,2.0,66,-99.99,,,0.00,0.000000,,2013-02-16 10:52:00,
2013-02-16 05:02:00,-19.0,-27.0,-100.00,NE,46,1.0,2.0,66,-99.99,,,0.00,0.000000,,2013-02-16 11:02:00,
2013-02-16 05:11:00,-19.0,-27.0,-100.00,NE,46,1.0,2.0,66,-99.99,,,0.00,0.000000,,2013-02-16 11:11:00,
2013-02-16 05:12:00,-20.0,-27.0,-100.00,SE,144,1.0,2.0,67,0.00,,,0.00,0.000000,,2013-02-16 11:12:00,
2013-02-16 05:32:00,-20.0,-27.0,-100.00,SE,144,1.0,2.0,67,0.00,,,0.00,0.000000,,2013-02-16 11:32:00,
2013-02-16 05:42:00,-20.0,-27.0,-100.00,SE,144,1.0,2.0,67,0.00,,,0.00,0.000000,,2013-02-16 11:42:00,
2013-02-16 05:52:00,-20.0,-27.0,-100.00,SE,144,1.0,2.0,67,0.00,,,0.00,0.000000,,2013-02-16 11:52:00,
2013-02-16 06:01:00,-20.0,-27.0,-100.00,SE,144,1.0,2.0,67,0.00,,,0.00,0.000000,,2013-02-16 12:01:00,
2013-02-16 06:32:00,-20.0,-28.0,-100.00,SE,136,1.0,1.0,66,0.00,,,0.00,0.000000,,2013-02-16 12:32:00,
2013-02-16 06:42:00,-20.0,-28.0,-100.00,SE,136,1.0,1.0,66,0.00,,,0.00,0.000000,,2013-02-16 12:42:00,
2013-02-16 06:52:00,-20.0,-28.0,-100.00,SE,136,1.0,1.0,66,0.00,,,0.00,0.000000,,2013-02-16 12:52:00,
2013-02-16 07:02:00,-20.0,-28.0,-100.00,SE,136,1.0,1.0,66,0.00,,,0.00,0.000000,,2013-02-16 13:02:00,
2013-02-16 07:11:00,-20.0,-28.0,-100.00,SE,136,1.0,1.0,66,0.00,,,0.00,0.000000,,2013-02-16 13:11:00,
2013-02-16 08:42:00,-19.0,-27.0,-100.00,East,85,1.0,1.0,65,-99.99,,,0.00,5.000000,,2013-02-16 14:42:00,
2013-02-16 08:52:00,-19.0,-27.0,-100.00,East,85,1.0,1.0,65,-99.99,,,0.00,5.000000,,2013-02-16 14:52:00,
2013-02-16 09:01:00,-19.0,-27.0,-100.00,East,85,1.0,1.0,65,-99.99,,,0.00,5.000000,,2013-02-16 15:01:00,
2013-02-16 09:11:00,-19.0,-27.0,-100.00,East,85,1.0,1.0,65,-99.99,,,0.00,5.000000,,2013-02-16 15:11:00,
2013-02-16 09:42:00,-12.0,-19.0,-100.00,SE,126,2.0,3.0,69,0.00,,,0.00,22.000000,,2013-02-16 15:42:00,
2013-02-16 09:52:00,-12.0,-19.0,-100.00,SE,126,2.0,3.0,69,0.00,,,0.00,22.000000,,2013-02-16 15:52:00,
2013-02-16 10:01:00,-12.0,-19.0,-100.00,SE,126,2.0,3.0,69,0.00,,,0.00,22.000000,,2013-02-16 16:01:00,
2013-02-16 10:11:00,-12.0,-19.0,-100.00,SE,126,2.0,3.0,69,0.00,,,0.00,22.000000,,2013-02-16 16:11:00,
2013-02-16 10:32:00,0.0,-7.0,-100.00,SE,143,3.0,5.0,70,0.00,,,0.00,56.000000,,2013-02-16 16:32:00,
2013-02-16 10:42:00,0.0,-7.0,-100.00,SE,143,3.0,5.0,70,0.00,,,0.00,56.000000,,2013-02-16 16:42:00,
2013-02-16 10:52:00,0.0,-7.0,-100.00,SE,143,3.0,5.0,70,0.00,,,0.00,56.000000,,2013-02-16 16:52:00,
2013-02-16 11:01:00,0.0,-7.0,-100.00,SE,143,3.0,5.0,70,0.00,,,0.00,56.000000,,2013-02-16 17:01:00,
2013-02-16 11:11:00,0.0,-7.0,-100.00,SE,143,3.0,5.0,70,0.00,,,0.00,56.000000,,2013-02-16 17:11:00,
2013-02-16 11:42:00,6.0,-3.0,-100.00,SSE,151,2.0,5.0,65,0.00,,,-99.99,94.000000,,2013-02-16 17:42:00,
2013-02-16 11:52:00,6.0,-3.0,-100.00,SSE,151,2.0,5.0,65,0.00,,,-99.99,94.000000,,2013-02-16 17:52:00,
2013-02-16 12:02:00,6.0,-3.0,-100.00,SSE,151,2.0,5.0,65,0.00,,,-99.99,94.000000,,2013-02-16 18:02:00,
2013-02-16 12:11:00,6.0,-3.0,-100.00,SSE,151,2.0,5.0,65,0.00,,,-99.99,94.000000,,2013-02-16 18:11:00,
2013-02-16 12:33:00,15.0,2.0,-100.00,SSE,155,2.0,6.0,55,0.00,,,0.00,111.000000,,2013-02-16 18:33:00,
2013-02-16 12:42:00,15.0,2.0,-100.00,SSE,155,2.0,6.0,55,0.00,,,0.00,111.000000,,2013-02-16 18:42:00,
2013-02-16 12:52:00,15.0,2.0,-100.00,SSE,155,2.0,6.0,55,0.00,,,0.00,111.000000,,2013-02-16 18:52:00,
2013-02-16 13:02:00,15.0,2.0,-100.00,SSE,155,2.0,6.0,55,0.00,,,0.00,111.000000,,2013-02-16 19:02:00,
2013-02-16 13:11:00,15.0,2.0,-100.00,SSE,155,2.0,6.0,55,0.00,,,0.00,111.000000,,2013-02-16 19:11:00,
2013-02-16 13:42:00,20.0,2.0,-100.00,SE,139,3.0,7.0,44,0.00,,,0.00,138.000000,,2013-02-16 19:42:00,
2013-02-16 13:52:00,20.0,2.0,-100.00,SE,139,3.0,7.0,44,0.00,,,0.00,138.000000,,2013-02-16 19:52:00,
2013-02-16 14:42:00,17.0,-3.0,-100.00,ENE,57,3.0,6.0,40,-99.99,,,0.00,128.000000,,2013-02-16 20:42:00,
2013-02-16 14:52:00,17.0,-3.0,-100.00,ENE,57,3.0,6.0,40,-99.99,,,0.00,128.000000,,2013-02-16 20:52:00,
2013-02-16 15:02:00,17.0,-3.0,-100.00,ENE,57,3.0,6.0,40,-99.99,,,0.00,128.000000,,2013-02-16 21:02:00,
2013-02-16 15:11:00,17.0,-3.0,-100.00,ENE,57,3.0,6.0,40,-99.99,,,0.00,128.000000,,2013-02-16 21:11:00,
2013-02-16 15:42:00,15.0,1.0,-100.00,ESE,103,4.0,7.0,54,0.00,,,0.00,61.000000,,2013-02-16 21:42:00,
2013-02-16 15:52:00,15.0,1.0,-100.00,ESE,103,4.0,7.0,54,0.00,,,0.00,61.000000,,2013-02-16 21:52:00,
2013-02-16 16:01:00,15.0,1.0,-100.00,ESE,103,4.0,7.0,54,0.00,,,0.00,61.000000,,2013-02-16 22:01:00,
2013-02-16 16:11:00,15.0,1.0,-100.00,ESE,103,4.0,7.0,54,0.00,,,0.00,61.000000,,2013-02-16 22:11:00,
2013-02-16 16:32:00,15.0,1.0,-100.00,East,99,3.0,6.0,52,0.00,,,0.00,90.000000,,2013-02-16 22:32:00,
2013-02-16 16:42:00,15.0,1.0,-100.00,East,99,3.0,6.0,52,0.00,,,0.00,90.000000,,2013-02-16 22:42:00,
2013-02-16 16:52:00,15.0,1.0,-100.00,East,99,3.0,6.0,52,0.00,,,0.00,90.000000,,2013-02-16 22:52:00,
2013-02-16 17:02:00,15.0,1.0,-100.00,East,99,3.0,6.0,52,0.00,,,0.00,90.000000,,2013-02-16 23:02:00,
2013-02-16 17:11:00,15.0,1.0,-100.00,East,99,3.0,6.0,52,0.00,,,0.00,90.000000,,2013-02-16 23:11:00,
2013-02-16 17:12:00,8.0,-3.0,-100.00,SE,128,2.0,5.0,60,0.00,,,0.00,14.000000,,2013-02-16 23:12:00,
2013-02-16 17:32:00,8.0,-3.0,-100.00,SE,128,2.0,5.0,60,0.00,,,0.00,14.000000,,2013-02-16 23:32:00,
2013-02-16 17:42:00,8.0,-3.0,-100.00,SE,128,2.0,5.0,60,0.00,,,0.00,14.000000,,2013-02-16 23:42:00,
2013-02-16 17:52:00,8.0,-3.0,-100.00,SE,128,2.0,5.0,60,0.00,,,0.00,14.000000,,2013-02-16 23:52:00,
2013-02-16 18:02:00,8.0,-3.0,-100.00,SE,128,2.0,5.0,60,0.00,,,0.00,14.000000,,2013-02-17 00:02:00,
2013-02-16 18:32:00,4.0,-6.0,-100.00,SE,128,2.0,2.0,61,0.00,,,0.00,0.000000,,2013-02-17 00:32:00,
2013-02-16 18:42:00,4.0,-6.0,-100.00,SE,128,2.0,2.0,61,0.00,,,0.00,0.000000,,2013-02-17 00:42:00,
2013-02-16 18:52:00,4.0,-6.0,-100.00,SE,128,2.0,2.0,61,0.00,,,0.00,0.000000,,2013-02-17 00:52:00,
2013-02-16 19:01:00,4.0,-6.0,-100.00,SE,128,2.0,2.0,61,0.00,,,0.00,0.000000,,2013-02-17 01:01:00,
2013-02-16 19:11:00,4.0,-6.0,-100.00,SE,128,2.0,2.0,61,0.00,,,0.00,0.000000,,2013-02-17 01:11:00,
2013-02-16 20:42:00,-3.0,-7.0,-100.00,SE,144,1.0,2.0,81,-99.99,,,0.00,0.000000,,2013-02-17 02:42:00,
2013-02-16 20:52:00,-3.0,-7.0,-100.00,SE,144,1.0,2.0,81,-99.99,,,0.00,0.000000,,2013-02-17 02:52:00,
2013-02-16 21:02:00,-3.0,-7.0,-100.00,SE,144,1.0,2.0,81,-99.99,,,0.00,0.000000,,2013-02-17 03:02:00,
2013-02-16 21:11:00,-3.0,-7.0,-100.00,SE,144,1.0,2.0,81,-99.99,,,0.00,0.000000,,2013-02-17 03:11:00,
2013-02-16 21:32:00,-5.0,-10.0,-100.00,SE,135,2.0,3.0,79,0.00,,,0.00,0.000000,,2013-02-17 03:32:00,
2013-02-16 21:42:00,-5.0,-10.0,-100.00,SE,135,2.0,3.0,79,0.00,,,0.00,0.000000,,2013-02-17 03:42:00,
2013-02-16 21:52:00,-5.0,-10.0,-100.00,SE,135,2.0,3.0,79,0.00,,,0.00,0.000000,,2013-02-17 03:52:00,
2013-02-16 22:01:00,-5.0,-10.0,-100.00,SE,135,2.0,3.0,79,0.00,,,0.00,0.000000,,2013-02-17 04:01:00,
2013-02-16 22:11:00,-5.0,-10.0,-100.00,SE,135,2.0,3.0,79,0.00,,,0.00,0.000000,,2013-02-17 04:11:00,
2013-02-16 22:12:00,-6.0,-11.0,-100.00,SE,145,2.0,3.0,79,0.00,,,0.00,0.000000,,2013-02-17 04:12:00,
2013-02-16 22:42:00,-6.0,-11.0,-100.00,SE,145,2.0,3.0,79,0.00,,,0.00,0.000000,,2013-02-17 04:42:00,
2013-02-16 22:52:00,-6.0,-11.0,-100.00,SE,145,2.0,3.0,79,0.00,,,0.00,0.000000,,2013-02-17 04:52:00,
2013-02-16 23:02:00,-6.0,-11.0,-100.00,SE,145,2.0,3.0,79,0.00,,,0.00,0.000000,,2013-02-17 05:02:00,
2013-02-16 23:42:00,-6.0,-11.0,-100.00,SSE,150,2.0,2.0,78,0.00,,,0.00,0.000000,,2013-02-17 05:42:00,
2013-02-16 23:52:00,-6.0,-11.0,-100.00,SSE,150,2.0,2.0,78,0.00,,,0.00,0.000000,,2013-02-17 05:52:00,